createdAt,value
2022-08-30T00:13:41.568Z,36.53
2022-08-30T00:28:43.791Z,36.56
2022-08-30T00:43:45.969Z,36.08
2022-08-30T00:58:48.225Z,35.56
2022-08-30T01:13:50.591Z,34.25
2022-08-30T01:28:52.768Z,33.64
2022-08-30T01:43:55.187Z,33.7
2022-08-30T01:59:01.828Z,32.16
2022-08-30T02:14:05.384Z,31.23
2022-08-30T02:29:07.623Z,29.82
2022-08-30T02:44:09.859Z,28.93
2022-08-30T02:59:12.100Z,28.37
2022-08-30T03:14:14.305Z,27.94
2022-08-30T03:29:16.536Z,27.59
2022-08-30T03:44:18.763Z,26.78
2022-08-30T03:59:21.428Z,26.6
2022-08-30T04:14:23.589Z,26.72
2022-08-30T04:29:25.800Z,25.76
2022-08-30T04:44:28.128Z,26.2
2022-08-30T04:59:30.355Z,25.46
2022-08-30T05:14:32.627Z,25.05
2022-08-30T05:29:35.519Z,24.45
2022-08-30T05:44:37.851Z,24.36
2022-08-30T05:59:46.676Z,23.08
2022-08-30T06:14:48.965Z,23.67
2022-08-30T06:29:51.173Z,24.17
2022-08-30T06:44:53.430Z,23.83
2022-08-30T06:59:57.298Z,22.81
2022-08-30T07:14:59.631Z,22.87
2022-08-30T07:30:01.832Z,23.19
2022-08-30T07:45:04.205Z,22.78
2022-08-30T08:00:06.402Z,22.92
2022-08-30T08:15:09.076Z,22.05
2022-08-30T08:30:11.446Z,21.45
2022-08-30T08:45:16.841Z,21.67
2022-08-30T09:00:19.401Z,21.5
2022-08-30T09:15:21.615Z,21.32
2022-08-30T09:30:23.790Z,20.43
2022-08-30T09:45:27.857Z,19.95
2022-08-30T10:00:30.172Z,20.3
2022-08-30T10:15:32.355Z,19.71
2022-08-30T10:30:34.724Z,19.68
2022-08-30T10:45:36.945Z,19.6
2022-08-30T11:00:39.115Z,19.35
2022-08-30T11:15:44.060Z,18.81
2022-08-30T11:30:46.266Z,19.28
2022-08-30T11:45:48.583Z,18.89
2022-08-30T12:00:52.890Z,18.88
2022-08-30T12:15:55.356Z,18.65
2022-08-30T12:30:57.676Z,18.4
2022-08-30T12:46:00.840Z,18.05
2022-08-30T13:01:09.789Z,18.1
2022-08-30T13:16:12.085Z,18.31
2022-08-30T13:31:15.064Z,18.37
2022-08-30T13:46:18.558Z,18.14
2022-08-30T14:01:20.811Z,18.19
2022-08-30T14:16:27.012Z,20.18
2022-08-30T14:31:29.707Z,22.32
2022-08-30T14:46:32.105Z,20.78
2022-08-30T15:01:37.011Z,19.75
2022-08-30T15:16:39.607Z,23.19
2022-08-30T15:31:41.983Z,24.07
2022-08-30T15:46:44.299Z,23.47
2022-08-30T16:01:47.845Z,23.81
2022-08-30T16:16:50.235Z,24.95
2022-08-30T16:31:52.496Z,27.96
2022-08-30T16:46:54.825Z,26.92
2022-08-30T17:01:57.254Z,26.7
2022-08-30T17:17:00.576Z,27.25
2022-08-30T17:32:03.074Z,28.06
2022-08-30T17:47:05.260Z,28.08
2022-08-30T18:02:07.518Z,28.55
2022-08-30T18:17:13.709Z,29.12
2022-08-30T18:32:16.091Z,29.32
2022-08-30T18:47:18.280Z,29.5
2022-08-30T19:02:27.532Z,29.97
2022-08-30T19:17:30.225Z,30.37
2022-08-30T19:32:32.496Z,31.04
2022-08-30T19:47:34.769Z,31.83
2022-08-30T20:02:36.926Z,32.95
2022-08-30T20:18:02.531Z,34.08
2022-08-30T20:33:08.610Z,35.04
2022-08-30T20:48:11.383Z,35.64
2022-08-30T21:03:25.844Z,36.16
2022-08-30T21:18:29.535Z,36.16
2022-08-30T21:33:31.860Z,36.08
2022-08-30T21:48:34.072Z,35.64
2022-08-30T22:03:39.901Z,36.55
2022-08-30T22:18:42.080Z,36.1
2022-08-30T22:33:44.301Z,37.32
2022-08-30T22:48:46.499Z,36.9
2022-08-30T23:03:48.699Z,38
2022-08-30T23:18:50.934Z,39.3
2022-08-30T23:33:53.195Z,40.25
2022-08-30T23:48:55.408Z,40.1
